Latest Weather Observations for Hillarys Point Boat Harbour

IDW60801

Issued at 9:54 pm WST Saturday 23 January 2021 (issued every 10 minutes, with the page automatically refreshed every 10 minutes)

About weather observations | Map of weather stations | Latest weather observations for WA | Other Formats
Station Details ID: 009265 Name: HILLARYS BOAT HARBOUR NTC AWS Lat: -31.83 Lon: 115.74 Height: 0.0 m
Data from the previous 72 hours. | See also: Recent months for locations in Western Australia
Date/Time
WST
Temp
°C
App
Temp
°C
Dew
Point
°C
Rel
Hum
%
Delta-T
°C
Wind Press
QNH
hPa
Press
MSL
hPa
Rain since
9am
mm
Dir  Spd
km/h
Gust
km/h
Spd
kts
Gust
kts
23/09:30pm 21.4 - - - - SW 19 28 10 15 1005.7 1005.6 -
23/09:00pm 21.4 - - - - SW 17 24 9 13 1005.5 1005.4 -
23/08:30pm 21.6 - - - - WSW 19 28 10 15 1005.1 1005.0 -
23/08:00pm 21.8 - - - - SW 17 28 9 15 1004.8 1004.7 -
23/07:30pm 21.8 - - - - SW 19 30 10 16 1004.5 1004.4 -
23/07:00pm 21.9 - - - - SW 17 26 9 14 1004.4 1004.3 -
23/06:30pm 22.0 - - - - SW 17 26 9 14 1004.0 1003.9 -
23/06:00pm 22.0 - - - - SW 20 28 11 15 1003.6 1003.5 -
23/05:30pm 22.3 - - - - SW 20 32 11 17 1003.0 1002.9 -
23/05:00pm 22.7 - - - - SW 19 30 10 16 1002.8 1002.7 -
23/04:30pm 23.0 - - - - SSW 15 24 8 13 1002.6 1002.5 -
23/04:00pm 23.4 - - - - SSW 15 26 8 14 1002.9 1002.8 -
23/03:30pm 23.1 - - - - SSW 17 26 9 14 1002.8 1002.7 -
23/03:00pm 23.1 - - - - SW 19 28 10 15 1002.9 1002.8 -
23/02:30pm 23.3 - - - - SW 17 28 9 15 1002.9 1002.8 -
23/02:00pm 23.5 - - - - SSW 17 32 9 17 1002.9 1002.8 -
23/01:30pm 23.6 - - - - SSW 15 28 8 15 1002.9 1002.8 -
23/01:00pm 23.5 - - - - SSW 19 32 10 17 1002.8 1002.7 -
23/12:30pm 23.2 - - - - SW 22 35 12 19 1002.9 1002.8 -
23/12:00pm 23.4 - - - - SW 24 35 13 19 1003.0 1002.9 -
23/11:30am 23.3 - - - - SW 22 32 12 17 1003.1 1003.0 -
23/11:00am 23.7 - - - - SW 20 30 11 16 1003.0 1002.9 -
23/10:30am 23.4 - - - - SW 20 32 11 17 1003.1 1003.0 -
23/10:00am 23.7 - - - - SW 15 26 8 14 1002.7 1002.6 -
23/09:30am 23.3 - - - - SW 17 24 9 13 1002.5 1002.4 -
23/09:00am 22.9 - - - - SW 15 20 8 11 1002.2 1002.1 -
23/08:30am 22.9 - - - - SW 11 20 6 11 1001.8 1001.7 -
23/08:00am 23.1 - - - - SW 15 24 8 13 1001.5 1001.4 -
23/07:30am 23.0 - - - - SW 15 24 8 13 1001.5 1001.4 -
23/07:00am 22.9 - - - - SW 15 24 8 13 1001.1 1001.0 -
23/06:30am 23.0 - - - - SSW 9 19 5 10 1000.8 1000.7 -
23/06:00am 23.1 - - - - SW 9 17 5 9 1001.0 1000.9 -
23/05:30am 23.1 - - - - SW 7 11 4 6 1000.5 1000.4 -
23/05:00am 23.1 - - - - SW 9 15 5 8 1000.4 1000.3 -
23/04:30am 23.9 - - - - W 19 44 10 24 1000.6 1000.5 -
23/04:00am 21.9 - - - - ENE 6 11 3 6 999.6 999.5 -
23/03:30am 21.1 - - - - NE 4 7 2 4 999.6 999.5 -
23/03:00am 21.2 - - - - ENE 6 13 3 7 999.7 999.6 -
23/02:30am 22.4 - - - - SW 4 6 2 3 999.9 999.8 -
23/02:00am 21.5 - - - - NE 4 6 2 3 1000.2 1000.1 -
23/01:30am 22.9 - - - - SSW 2 4 1 2 1000.4 1000.3 -
23/01:00am 22.9 - - - - E 2 4 1 2 1000.4 1000.3 -
23/12:30am 23.2 - - - - ESE 2 6 1 3 1000.5 1000.4 -
23/12:00am 23.2 - - - - SE 4 11 2 6 1000.7 1000.6 -
 
Date/Time
WST
Temp
°C
App
Temp
°C
Dew
Point
°C
Rel
Hum
%
Delta-T
°C
Wind Press
QNH
hPa
Press
MSL
hPa
Rain since
9am
mm
Dir  Spd
km/h
Gust
km/h
Spd
kts
Gust
kts
22/11:30pm 23.6 - - - - S 4 11 2 6 1001.3 1001.2 -
22/11:00pm 23.6 - - - - S 6 15 3 8 1001.7 1001.6 -
22/10:30pm 23.6 - - - - SSW 7 19 4 10 1001.8 1001.7 -
22/10:00pm 23.6 - - - - S 2 11 1 6 1001.8 1001.7 -
22/09:30pm 23.6 - - - - S 6 11 3 6 1001.8 1001.7 -
22/09:00pm 23.6 - - - - S 6 17 3 9 1002.2 1002.1 -
22/08:30pm 23.7 - - - - S 7 20 4 11 1002.1 1002.0 -
22/08:00pm 23.6 - - - - SSW 15 28 8 15 1002.3 1002.2 -
22/07:30pm 24.1 - - - - SSW 11 20 6 11 1002.1 1002.0 -
22/07:00pm 24.1 - - - - SSW 9 19 5 10 1002.1 1002.0 -
22/06:30pm 24.6 - - - - SSW 9 19 5 10 1002.1 1002.0 -
22/06:00pm 25.2 - - - - S 6 15 3 8 1001.8 1001.7 -
22/05:30pm 24.6 - - - - SSW 11 22 6 12 1001.8 1001.7 -
22/05:00pm 24.5 - - - - SSW 11 22 6 12 1001.7 1001.6 -
22/04:30pm 24.3 - - - - SSW 19 32 10 17 1002.0 1001.9 -
22/04:00pm 24.4 - - - - SSW 19 33 10 18 1002.2 1002.1 -
22/03:30pm 24.2 - - - - SSW 20 33 11 18 1002.3 1002.2 -
22/03:00pm 24.5 - - - - SSW 19 32 10 17 1002.4 1002.3 -
22/02:30pm 25.4 - - - - SSW 11 28 6 15 1002.5 1002.4 -
22/02:00pm 25.1 - - - - SSW 9 17 5 9 1002.6 1002.5 -
22/01:30pm 25.2 - - - - SSW 11 20 6 11 1002.8 1002.7 -
22/01:00pm 25.4 - - - - SSW 9 19 5 10 1003.1 1003.0 -
22/12:30pm 25.4 - - - - SSW 11 22 6 12 1003.5 1003.4 -
22/12:00pm 25.6 - - - - SSW 13 22 7 12 1003.5 1003.4 -
22/11:30am 25.4 - - - - SW 13 22 7 12 1003.8 1003.7 -
22/11:00am 26.6 - - - - SW 11 17 6 9 1004.1 1004.0 -
22/10:30am 29.4 - - - - E 4 15 2 8 1004.7 1004.6 -
22/10:00am 28.7 - - - - NE 7 15 4 8 1005.0 1004.9 -
22/09:30am 27.3 - - - - ENE 13 22 7 12 1005.1 1005.0 -
22/09:00am 26.2 - - - - ENE 20 39 11 21 1005.0 1004.9 -
22/08:30am 24.8 - - - - ENE 26 41 14 22 1005.0 1004.9 -
22/08:00am 23.5 - - - - ENE 24 39 13 21 1005.2 1005.1 -
22/07:30am 22.5 - - - - ENE 24 41 13 22 1005.4 1005.3 -
22/07:00am 21.9 - - - - ENE 24 41 13 22 1005.5 1005.4 -
22/06:30am 21.5 - - - - ENE 24 44 13 24 1005.7 1005.6 -
22/06:00am 21.2 - - - - ENE 24 43 13 23 1005.6 1005.5 -
22/05:30am 21.4 - - - - ENE 24 39 13 21 1005.5 1005.4 -
22/05:00am 21.7 - - - - ENE 24 41 13 22 1005.4 1005.3 -
22/04:30am 22.0 - - - - E 24 41 13 22 1005.5 1005.4 -
22/04:00am 22.4 - - - - ENE 24 39 13 21 1005.5 1005.4 -
22/03:30am 23.0 - - - - ENE 22 41 12 22 1005.7 1005.6 -
22/03:00am 23.7 - - - - ENE 26 46 14 25 1005.9 1005.8 -
22/02:30am 24.4 - - - - E 22 39 12 21 1006.0 1005.9 -
22/02:00am 25.1 - - - - E 20 37 11 20 1006.2 1006.1 -
22/01:30am 25.9 - - - - E 20 41 11 22 1006.4 1006.3 -
22/01:00am 26.5 - - - - E 15 32 8 17 1006.5 1006.4 -
22/12:30am 27.1 - - - - E 11 24 6 13 1006.6 1006.5 -
22/12:00am 26.4 - - - - E 4 13 2 7 1006.7 1006.6 -
 
Date/Time
WST
Temp
°C
App
Temp
°C
Dew
Point
°C
Rel
Hum
%
Delta-T
°C
Wind Press
QNH
hPa
Press
MSL
hPa
Rain since
9am
mm
Dir  Spd
km/h
Gust
km/h
Spd
kts
Gust
kts
21/11:30pm 24.7 - - - - SSE 4 6 2 3 1006.8 1006.7 -
21/11:00pm 24.1 - - - - SSE 4 9 2 5 1007.1 1007.0 -
21/10:30pm 24.1 - - - - S 6 13 3 7 1007.1 1007.0 -
21/10:00pm 24.2 - - - - S 7 15 4 8 1007.3 1007.2 -
21/09:30pm 24.3 - - - - S 6 19 3 10 1007.5 1007.4 -
21/09:00pm 24.4 - - - - SSW 6 20 3 11 1007.6 1007.5 -
21/08:30pm 24.2 - - - - SSW 7 15 4 8 1007.5 1007.4 -
21/08:00pm 24.3 - - - - SSW 9 20 5 11 1007.5 1007.4 -
21/07:30pm 24.2 - - - - SSW 7 17 4 9 1007.6 1007.5 -
21/07:00pm 24.0 - - - - SSW 11 20 6 11 1007.6 1007.5 -
21/06:30pm 23.9 - - - - SSW 17 32 9 17 1007.5 1007.4 -
21/06:00pm 24.2 - - - - SSW 17 35 9 19 1007.2 1007.1 -
21/05:30pm 24.6 - - - - SSW 15 30 8 16 1007.3 1007.2 -
21/05:00pm 25.0 - - - - SSW 13 30 7 16 1007.3 1007.2 -
21/04:30pm 24.8 - - - - SSW 15 32 8 17 1007.4 1007.3 -
21/04:00pm 25.1 - - - - SSW 13 24 7 13 1007.6 1007.5 -
21/03:30pm 25.1 - - - - SSW 13 30 7 16 1007.9 1007.8 -
21/03:00pm 24.8 - - - - SSW 15 33 8 18 1008.0 1007.9 -
21/02:30pm 25.2 - - - - SSW 13 28 7 15 1008.3 1008.2 -
21/02:00pm 25.0 - - - - SSW 17 32 9 17 1008.4 1008.3 -
21/01:30pm 24.8 - - - - SSW 15 32 8 17 1008.8 1008.7 -
21/01:00pm 24.9 - - - - SSW 13 30 7 16 1009.1 1009.0 -
21/12:30pm 25.0 - - - - SSW 13 26 7 14 1009.4 1009.3 -
21/12:00pm 24.8 - - - - SSW 17 33 9 18 1009.8 1009.7 -
21/11:30am 24.7 - - - - SSW 19 33 10 18 1010.1 1010.0 -
21/11:00am 24.6 - - - - SSW 19 33 10 18 1010.3 1010.2 -
21/10:30am 24.9 - - - - SW 15 26 8 14 1010.5 1010.4 -
21/10:00am 24.8 - - - - SSW 13 20 7 11 1010.6 1010.5 -
21/09:30am 25.1 - - - - SSW 9 17 5 9 1010.8 1010.7 -
21/09:00am 25.8 - - - - SSW 6 13 3 7 1011.0 1010.9 -
21/08:30am 25.1 - - - - SSW 6 17 3 9 1011.3 1011.2 -
21/08:00am 25.7 - - - - S 6 13 3 7 1011.5 1011.4 -
21/07:30am 25.2 - - - - SSE 6 13 3 7 1011.4 1011.3 -
21/07:00am 24.8 - - - - SSE 4 9 2 5 1011.2 1011.1 -
21/06:30am 24.1 - - - - ESE 2 7 1 4 1011.0 1010.9 -
21/06:00am 23.8 - - - - SSE 6 11 3 6 1010.7 1010.6 -
21/05:30am 23.7 - - - - SE 2 7 1 4 1010.4 1010.3 -
21/05:00am 24.1 - - - - SSE 7 13 4 7 1010.3 1010.2 -
21/04:30am 24.1 - - - - SSE 7 17 4 9 1010.1 1010.0 -
21/04:00am 24.2 - - - - S 4 13 2 7 1010.0 1009.9 -
21/03:30am 24.3 - - - - S 4 11 2 6 1009.7 1009.6 -
21/03:00am 24.6 - - - - SSE 7 13 4 7 1009.7 1009.6 -
21/02:30am 24.4 - - - - S 4 7 2 4 1009.6 1009.5 -
21/02:00am 24.2 - - - - S 2 9 1 5 1009.8 1009.7 -
21/01:30am 24.3 - - - - S 4 9 2 5 1009.6 1009.5 -
21/01:00am 24.1 - - - - S 6 13 3 7 1009.7 1009.6 -
21/12:30am 24.1 - - - - S 7 19 4 10 1009.7 1009.6 -
21/12:00am 24.1 - - - - S 4 13 2 7 1009.9 1009.8 -
 
Date/Time
WST
Temp
°C
App
Temp
°C
Dew
Point
°C
Rel
Hum
%
Delta-T
°C
Wind Press
QNH
hPa
Press
MSL
hPa
Rain since
9am
mm
Dir  Spd
km/h
Gust
km/h
Spd
kts
Gust
kts
20/11:30pm 24.1 - - - - S 4 9 2 5 1009.6 1009.5 -
20/11:00pm 24.2 - - - - S 2 9 1 5 1009.8 1009.7 -
20/10:30pm 24.3 - - - - SSW 6 11 3 6 1009.7 1009.6 -
20/10:00pm 24.1 - - - - S 6 13 3 7 1009.9 1009.8 -

Other formats

Comma delimited format used in spreadsheet applications
http://www.bom.gov.au/fwo/IDW60801/IDW60801.95605.axf

JavaScript Object Notation format (JSON) in row-major order
http://www.bom.gov.au/fwo/IDW60801/IDW60801.95605.json

Data quality

Most of these data are generated automatically and are frequently updated. Quality checks on data are not normally performed. It is possible for incorrect values to appear. Refer to information at About Latest Weather Observations and please check the disclaimer before using these data.